createdAt,value
2022-11-05T00:00:02.427Z,5.17
2022-11-05T00:16:02.302Z,5.17
2022-11-05T00:31:02.322Z,5.17
2022-11-05T00:46:02.316Z,5.17
2022-11-05T01:00:02.628Z,5.11
2022-11-05T01:16:02.862Z,5
2022-11-05T01:31:02.303Z,4.94
2022-11-05T01:46:02.286Z,4.94
2022-11-05T02:00:02.353Z,4.94
2022-11-05T02:16:02.317Z,4.83
2022-11-05T02:31:02.318Z,4.78
2022-11-05T02:46:02.333Z,4.78
2022-11-05T03:00:02.329Z,4.72
2022-11-05T03:16:02.329Z,4.61
2022-11-05T03:31:02.310Z,4.61
2022-11-05T03:46:02.308Z,4.61
2022-11-05T04:00:02.306Z,4.56
2022-11-05T04:16:02.304Z,4.5
2022-11-05T04:31:02.305Z,4.44
2022-11-05T04:46:02.282Z,4.44
2022-11-05T05:00:02.417Z,4.39
2022-11-05T05:16:02.309Z,4.44
2022-11-05T05:31:02.289Z,4.39
2022-11-05T05:46:02.304Z,4.33
2022-11-05T06:00:02.288Z,4.28
2022-11-05T06:16:03.016Z,4.28
2022-11-05T06:31:02.312Z,4.44
2022-11-05T06:46:02.262Z,4.56
2022-11-05T07:00:07.356Z,4.61
2022-11-05T07:16:02.280Z,4.72
2022-11-05T07:31:02.248Z,4.89
2022-11-05T07:46:03.122Z,5.11
2022-11-05T08:00:02.251Z,5.33
2022-11-05T08:16:02.245Z,5.61
2022-11-05T08:31:02.225Z,5.67
2022-11-05T08:46:02.288Z,5.78
2022-11-05T09:00:02.559Z,6.11
2022-11-05T09:16:02.264Z,6.22
2022-11-05T09:31:02.258Z,6.5
2022-11-05T09:46:02.357Z,6.72
2022-11-05T10:00:02.265Z,6.94
2022-11-05T10:16:02.246Z,7.22
2022-11-05T10:31:02.231Z,7.72
2022-11-05T10:46:02.267Z,8.06
2022-11-05T11:00:02.267Z,8.28
2022-11-05T11:16:02.229Z,8.61
2022-11-05T11:31:02.260Z,8.94
2022-11-05T11:46:06.917Z,9.5
2022-11-05T12:00:10.059Z,9.78
2022-11-05T12:16:02.262Z,10
2022-11-05T12:31:02.237Z,10.11
2022-11-05T12:46:02.283Z,10.33
2022-11-05T13:00:02.547Z,10.67
2022-11-05T13:16:02.247Z,11.06
2022-11-05T13:31:02.261Z,11.56
2022-11-05T13:46:05.955Z,11.94
2022-11-05T14:00:02.238Z,12.17
2022-11-05T14:16:02.292Z,12.5
2022-11-05T14:31:02.291Z,12.67
2022-11-05T14:46:02.286Z,12.33
2022-11-05T15:00:02.623Z,12
2022-11-05T15:16:02.274Z,11.56
2022-11-05T15:31:02.301Z,10.72
2022-11-05T15:46:02.285Z,9.83
2022-11-05T16:00:02.430Z,9
2022-11-05T16:16:02.243Z,8.17
2022-11-05T16:31:02.291Z,7.67
2022-11-05T16:46:02.242Z,7.22
2022-11-05T17:00:02.295Z,6.78
2022-11-05T17:16:02.245Z,6.22
2022-11-05T17:31:02.244Z,5.78
2022-11-05T17:46:04.840Z,5.44
2022-11-05T18:00:02.264Z,5.11
2022-11-05T18:16:02.230Z,4.78
2022-11-05T18:31:02.265Z,4.5
2022-11-05T18:46:02.248Z,4.33
2022-11-05T19:00:02.571Z,4.22
2022-11-05T19:16:02.265Z,4
2022-11-05T19:31:02.238Z,3.89
2022-11-05T19:46:02.216Z,3.72
2022-11-05T20:00:02.243Z,3.56
2022-11-05T20:16:02.252Z,3.33
2022-11-05T20:31:02.240Z,3.11
2022-11-05T20:46:02.242Z,3
2022-11-05T21:00:02.272Z,2.83
2022-11-05T21:16:02.257Z,2.72
2022-11-05T21:31:02.257Z,2.61
2022-11-05T21:46:02.218Z,2.56
2022-11-05T22:00:02.248Z,2.44
2022-11-05T22:16:02.192Z,2.28
2022-11-05T22:31:02.228Z,2.11
2022-11-05T22:46:04.753Z,2.06
2022-11-05T23:00:02.282Z,1.94
2022-11-05T23:16:02.222Z,1.78
2022-11-05T23:31:02.213Z,1.61
2022-11-05T23:46:02.220Z,1.5
